WAT2299 LFLL-LFBH
Flight info
| Callsign | WAT2299 |
|---|---|
| Flight time | N/A |
| Altitude | 28000 |
| Route | BELEP H38 TIS/N0428F290 DCT LMG DCT CNA DCT ESUZE/N0362F180 A25 MAREN |
| Aircraft | A20N/M-SDE2E3FGHIRWXY/LB1 |
Departure
| Time | 2026-05-05 09:53 |
|---|---|
| Airport | Lyon Saint-Exupéry Airport (LFLL) |
Arrival
| Time | N/A |
|---|---|
| Airport | La Rochelle Île de Ré Airport (LFBH) |
| Time | Latitude | Longitude | Altitude | Speed | Heading |
|---|---|---|---|---|---|
| 2026-05-05 09:34 | 45.72263 | 5.08196 | 794 ft | 0 kts | 271° |
| 2026-05-05 09:42 | 45.72263 | 5.08205 | 794 ft | 3 kts | 271° |
| 2026-05-05 09:43 | 45.72262 | 5.08243 | 794 ft | 3 kts | 275° |
| 2026-05-05 09:43 | 45.72249 | 5.08271 | 794 ft | 3 kts | 330° |
| 2026-05-05 09:43 | 45.72232 | 5.08277 | 795 ft | 0 kts | 4° |
| 2026-05-05 09:46 | 45.72233 | 5.08277 | 795 ft | 0 kts | 4° |
| 2026-05-05 09:47 | 45.72274 | 5.08271 | 794 ft | 10 kts | 353° |
| 2026-05-05 09:47 | 45.72326 | 5.08341 | 793 ft | 12 kts | 71° |
| 2026-05-05 09:47 | 45.72391 | 5.08404 | 793 ft | 13 kts | 356° |
| 2026-05-05 09:47 | 45.72489 | 5.08391 | 791 ft | 15 kts | 355° |
| 2026-05-05 09:48 | 45.72605 | 5.08377 | 788 ft | 17 kts | 355° |
| 2026-05-05 09:48 | 45.72734 | 5.08361 | 785 ft | 19 kts | 354° |
| 2026-05-05 09:48 | 45.72872 | 5.08344 | 782 ft | 20 kts | 356° |
| 2026-05-05 09:48 | 45.73021 | 5.08326 | 779 ft | 22 kts | 355° |
| 2026-05-05 09:49 | 45.73180 | 5.08308 | 775 ft | 23 kts | 355° |
| 2026-05-05 09:49 | 45.73344 | 5.08289 | 772 ft | 24 kts | 356° |
| 2026-05-05 09:49 | 45.73509 | 5.08268 | 772 ft | 23 kts | 355° |
| 2026-05-05 09:49 | 45.73676 | 5.08248 | 768 ft | 24 kts | 355° |
| 2026-05-05 09:50 | 45.73849 | 5.08226 | 764 ft | 25 kts | 354° |
| 2026-05-05 09:50 | 45.74013 | 5.08213 | 764 ft | 24 kts | 6° |
| 2026-05-05 09:50 | 45.74175 | 5.08260 | 765 ft | 23 kts | 13° |
| 2026-05-05 09:50 | 45.74329 | 5.08314 | 763 ft | 23 kts | 13° |
| 2026-05-05 09:51 | 45.74476 | 5.08361 | 764 ft | 18 kts | 13° |
| 2026-05-05 09:51 | 45.74584 | 5.08400 | 762 ft | 15 kts | 18° |
| 2026-05-05 09:51 | 45.74646 | 5.08518 | 760 ft | 16 kts | 83° |
| 2026-05-05 09:51 | 45.74619 | 5.08603 | 761 ft | 9 kts | 165° |
| 2026-05-05 09:52 | 45.74562 | 5.08606 | 762 ft | 7 kts | 173° |
| 2026-05-05 09:52 | 45.74485 | 5.08621 | 764 ft | 30 kts | 173° |
| 2026-05-05 09:52 | 45.74021 | 5.08679 | 770 ft | 101 kts | 175° |
| 2026-05-05 09:52 | 45.73099 | 5.08790 | 788 ft | 158 kts | 174° |
| 2026-05-05 09:53 | 45.72042 | 5.08909 | 1329 ft | 160 kts | 175° |
| 2026-05-05 09:53 | 45.70941 | 5.09063 | 1931 ft | 168 kts | 173° |
| 2026-05-05 09:53 | 45.69692 | 5.09229 | 2319 ft | 194 kts | 175° |
| 2026-05-05 09:53 | 45.68291 | 5.09361 | 2803 ft | 212 kts | 176° |
| 2026-05-05 09:54 | 45.66761 | 5.09533 | 3373 ft | 227 kts | 175° |
| 2026-05-05 09:54 | 45.65187 | 5.09726 | 4131 ft | 233 kts | 175° |
| 2026-05-05 09:54 | 45.63565 | 5.09928 | 4938 ft | 238 kts | 176° |
| 2026-05-05 09:54 | 45.61928 | 5.10051 | 5687 ft | 243 kts | 186° |
| 2026-05-05 09:55 | 45.60240 | 5.09413 | 6205 ft | 259 kts | 207° |
| 2026-05-05 09:55 | 45.58837 | 5.07783 | 6885 ft | 268 kts | 234° |
| 2026-05-05 09:55 | 45.58110 | 5.05381 | 7762 ft | 271 kts | 256° |
| 2026-05-05 09:55 | 45.57766 | 5.02752 | 8652 ft | 273 kts | 259° |
| 2026-05-05 09:56 | 45.57447 | 5.00090 | 9493 ft | 277 kts | 258° |
| 2026-05-05 09:56 | 45.57078 | 4.97398 | 10324 ft | 280 kts | 257° |
| 2026-05-05 09:56 | 45.56657 | 4.94628 | 10836 ft | 295 kts | 256° |
| 2026-05-05 09:56 | 45.56181 | 4.91661 | 11251 ft | 313 kts | 256° |
| 2026-05-05 09:57 | 45.55678 | 4.88595 | 11619 ft | 331 kts | 256° |
| 2026-05-05 09:57 | 45.55374 | 4.85254 | 11987 ft | 350 kts | 269° |
| 2026-05-05 09:57 | 45.55754 | 4.81790 | 12655 ft | 359 kts | 285° |
| 2026-05-05 09:57 | 45.56805 | 4.78537 | 13415 ft | 366 kts | 301° |
| 2026-05-05 09:58 | 45.58419 | 4.75760 | 14134 ft | 372 kts | 311° |
| 2026-05-05 09:58 | 45.60119 | 4.72959 | 14817 ft | 374 kts | 303° |
| 2026-05-05 09:58 | 45.61334 | 4.69920 | 15460 ft | 375 kts | 294° |
| 2026-05-05 09:58 | 45.62460 | 4.66580 | 16124 ft | 379 kts | 292° |
| 2026-05-05 09:59 | 45.63573 | 4.63139 | 16766 ft | 383 kts | 292° |
| 2026-05-05 09:59 | 45.64664 | 4.59707 | 17409 ft | 386 kts | 292° |
| 2026-05-05 09:59 | 45.65767 | 4.56207 | 18037 ft | 390 kts | 292° |
| 2026-05-05 09:59 | 45.66882 | 4.52660 | 18654 ft | 393 kts | 292° |
| 2026-05-05 10:00 | 45.68005 | 4.49078 | 19225 ft | 398 kts | 291° |
| 2026-05-05 10:00 | 45.69142 | 4.45443 | 19791 ft | 402 kts | 291° |
| 2026-05-05 10:00 | 45.70273 | 4.41819 | 20316 ft | 407 kts | 291° |
| 2026-05-05 10:00 | 45.71430 | 4.38112 | 20871 ft | 411 kts | 291° |
| 2026-05-05 10:01 | 45.72587 | 4.34391 | 21396 ft | 415 kts | 290° |
| 2026-05-05 10:01 | 45.73772 | 4.30577 | 21951 ft | 419 kts | 290° |
| 2026-05-05 10:01 | 45.74947 | 4.26790 | 22469 ft | 423 kts | 290° |
| 2026-05-05 10:01 | 45.76147 | 4.22909 | 22977 ft | 427 kts | 290° |
| 2026-05-05 10:02 | 45.77340 | 4.19051 | 23459 ft | 431 kts | 290° |
| 2026-05-05 10:02 | 45.78475 | 4.15048 | 23939 ft | 433 kts | 287° |
| 2026-05-05 10:02 | 45.79415 | 4.10996 | 24391 ft | 434 kts | 283° |
| 2026-05-05 10:02 | 45.80172 | 4.06839 | 24842 ft | 436 kts | 279° |
| 2026-05-05 10:03 | 45.80853 | 4.02567 | 25267 ft | 439 kts | 279° |
| 2026-05-05 10:03 | 45.81473 | 3.98587 | 25637 ft | 442 kts | 279° |
| 2026-05-05 10:03 | 45.82148 | 3.94248 | 26057 ft | 445 kts | 279° |
| 2026-05-05 10:03 | 45.82819 | 3.89941 | 26552 ft | 445 kts | 279° |
| 2026-05-05 10:04 | 45.83488 | 3.85645 | 26977 ft | 447 kts | 279° |
| 2026-05-05 10:04 | 45.84171 | 3.81258 | 27367 ft | 449 kts | 279° |
| 2026-05-05 10:04 | 45.84846 | 3.76920 | 27754 ft | 451 kts | 279° |
| 2026-05-05 10:04 | 45.85529 | 3.72528 | 27866 ft | 454 kts | 279° |
| 2026-05-05 10:05 | 45.86212 | 3.68102 | 27871 ft | 455 kts | 279° |
| 2026-05-05 10:05 | 45.86898 | 3.63668 | 27873 ft | 455 kts | 279° |
| 2026-05-05 10:05 | 45.87518 | 3.59298 | 27876 ft | 453 kts | 276° |
| 2026-05-05 10:05 | 45.87925 | 3.54785 | 27882 ft | 451 kts | 272° |
| 2026-05-05 10:06 | 45.88084 | 3.50359 | 27880 ft | 449 kts | 268° |
| 2026-05-05 10:06 | 45.88051 | 3.45850 | 27880 ft | 448 kts | 265° |
| 2026-05-05 10:06 | 45.87976 | 3.41435 | 27888 ft | 448 kts | 265° |
| 2026-05-05 10:06 | 45.87892 | 3.36945 | 27887 ft | 448 kts | 265° |
| 2026-05-05 10:07 | 45.87809 | 3.32518 | 27893 ft | 447 kts | 265° |
| 2026-05-05 10:07 | 45.87728 | 3.28101 | 27891 ft | 448 kts | 265° |
| 2026-05-05 10:07 | 45.87648 | 3.23762 | 27898 ft | 448 kts | 265° |
| 2026-05-05 10:07 | 45.87567 | 3.19326 | 27896 ft | 448 kts | 265° |
| 2026-05-05 10:08 | 45.87488 | 3.15072 | 27897 ft | 448 kts | 265° |
| 2026-05-05 10:08 | 45.87403 | 3.10622 | 27897 ft | 449 kts | 265° |
| 2026-05-05 10:08 | 45.87317 | 3.06126 | 27896 ft | 449 kts | 265° |
| 2026-05-05 10:08 | 45.87228 | 3.01645 | 27893 ft | 449 kts | 265° |
| 2026-05-05 10:09 | 45.87145 | 2.97399 | 27887 ft | 449 kts | 265° |
| 2026-05-05 10:09 | 45.87056 | 2.92959 | 27892 ft | 449 kts | 265° |
| 2026-05-05 10:09 | 45.86964 | 2.88505 | 27890 ft | 448 kts | 265° |
| 2026-05-05 10:09 | 45.86871 | 2.84073 | 27885 ft | 448 kts | 265° |
| 2026-05-05 10:10 | 45.86775 | 2.79576 | 27889 ft | 448 kts | 265° |
| 2026-05-05 10:10 | 45.86679 | 2.75165 | 27887 ft | 448 kts | 265° |
| 2026-05-05 10:10 | 45.86579 | 2.70676 | 27890 ft | 448 kts | 265° |
| 2026-05-05 10:10 | 45.86479 | 2.66256 | 27884 ft | 448 kts | 265° |
| 2026-05-05 10:11 | 45.86376 | 2.61766 | 27882 ft | 448 kts | 265° |
| 2026-05-05 10:11 | 45.86272 | 2.57316 | 27888 ft | 448 kts | 265° |
| 2026-05-05 10:11 | 45.86167 | 2.52910 | 27885 ft | 449 kts | 265° |
| 2026-05-05 10:11 | 45.86058 | 2.48420 | 27885 ft | 449 kts | 265° |
| 2026-05-05 10:12 | 45.85949 | 2.43941 | 27884 ft | 449 kts | 265° |
| 2026-05-05 10:12 | 45.85838 | 2.39499 | 27887 ft | 449 kts | 265° |
| 2026-05-05 10:12 | 45.85725 | 2.35049 | 27882 ft | 449 kts | 265° |
| 2026-05-05 10:12 | 45.85611 | 2.30603 | 27883 ft | 448 kts | 265° |
| 2026-05-05 10:13 | 45.85495 | 2.26110 | 27883 ft | 448 kts | 265° |
| 2026-05-05 10:13 | 45.85377 | 2.21669 | 27884 ft | 448 kts | 265° |
| 2026-05-05 10:13 | 45.85257 | 2.17204 | 27881 ft | 448 kts | 265° |
| 2026-05-05 10:13 | 45.85136 | 2.12801 | 27882 ft | 448 kts | 265° |
| 2026-05-05 10:14 | 45.85013 | 2.08337 | 27882 ft | 448 kts | 265° |
| 2026-05-05 10:14 | 45.84888 | 2.03873 | 27878 ft | 449 kts | 265° |
| 2026-05-05 10:14 | 45.84763 | 1.99424 | 27884 ft | 448 kts | 265° |
| 2026-05-05 10:14 | 45.84634 | 1.94972 | 27881 ft | 449 kts | 265° |
| 2026-05-05 10:15 | 45.84504 | 1.90505 | 27882 ft | 448 kts | 265° |
| 2026-05-05 10:15 | 45.84373 | 1.86029 | 27882 ft | 448 kts | 265° |
| 2026-05-05 10:15 | 45.84240 | 1.81594 | 27885 ft | 448 kts | 265° |
| 2026-05-05 10:15 | 45.84104 | 1.77132 | 27889 ft | 448 kts | 265° |
| 2026-05-05 10:16 | 45.83968 | 1.72719 | 27886 ft | 448 kts | 265° |
| 2026-05-05 10:16 | 45.83830 | 1.68271 | 27892 ft | 448 kts | 265° |
| 2026-05-05 10:16 | 45.83689 | 1.63828 | 27890 ft | 448 kts | 265° |
| 2026-05-05 10:16 | 45.83547 | 1.59354 | 27896 ft | 448 kts | 265° |
| 2026-05-05 10:17 | 45.83403 | 1.54892 | 27889 ft | 449 kts | 265° |
| 2026-05-05 10:17 | 45.83259 | 1.50495 | 27892 ft | 448 kts | 265° |
| 2026-05-05 10:17 | 45.83113 | 1.46065 | 27897 ft | 448 kts | 265° |
| 2026-05-05 10:17 | 45.82964 | 1.41599 | 27897 ft | 448 kts | 265° |
| 2026-05-05 10:18 | 45.82813 | 1.37125 | 27902 ft | 448 kts | 265° |
| 2026-05-05 10:18 | 45.82660 | 1.32682 | 27902 ft | 449 kts | 264° |
| 2026-05-05 10:18 | 45.82507 | 1.28224 | 27901 ft | 449 kts | 264° |
| 2026-05-05 10:18 | 45.82351 | 1.23770 | 27908 ft | 448 kts | 264° |
| 2026-05-05 10:19 | 45.82194 | 1.19295 | 27908 ft | 448 kts | 264° |
| 2026-05-05 10:19 | 45.82037 | 1.14883 | 27904 ft | 448 kts | 264° |
| 2026-05-05 10:19 | 45.81876 | 1.10446 | 27907 ft | 448 kts | 264° |
| 2026-05-05 10:19 | 45.81708 | 1.05949 | 27905 ft | 448 kts | 264° |
| 2026-05-05 10:20 | 45.81430 | 1.01534 | 27905 ft | 447 kts | 261° |
| 2026-05-05 10:20 | 45.80989 | 0.97150 | 27908 ft | 446 kts | 258° |
| 2026-05-05 10:20 | 45.80506 | 0.92816 | 27908 ft | 447 kts | 258° |
| 2026-05-05 10:20 | 45.80010 | 0.88413 | 27897 ft | 446 kts | 258° |
| 2026-05-05 10:21 | 45.79516 | 0.84041 | 27905 ft | 446 kts | 258° |
| 2026-05-05 10:21 | 45.79018 | 0.79653 | 27902 ft | 447 kts | 258° |
| 2026-05-05 10:21 | 45.78521 | 0.75267 | 27902 ft | 446 kts | 258° |
| 2026-05-05 10:21 | 45.78025 | 0.70899 | 27899 ft | 447 kts | 258° |
| 2026-05-05 10:22 | 45.77523 | 0.66506 | 27906 ft | 447 kts | 258° |
| 2026-05-05 10:22 | 45.77027 | 0.62167 | 27906 ft | 448 kts | 258° |
| 2026-05-05 10:22 | 45.76519 | 0.57745 | 27906 ft | 449 kts | 258° |
| 2026-05-05 10:22 | 45.76014 | 0.53362 | 27908 ft | 449 kts | 258° |
| 2026-05-05 10:23 | 45.75508 | 0.48974 | 27908 ft | 449 kts | 258° |
| 2026-05-05 10:23 | 45.74996 | 0.44548 | 27913 ft | 449 kts | 258° |
| 2026-05-05 10:23 | 45.74490 | 0.40194 | 27911 ft | 449 kts | 258° |
| 2026-05-05 10:23 | 45.73975 | 0.35775 | 27915 ft | 449 kts | 258° |
| 2026-05-05 10:24 | 45.73459 | 0.31369 | 27915 ft | 449 kts | 258° |
| 2026-05-05 10:24 | 45.72950 | 0.27032 | 27918 ft | 449 kts | 258° |
| 2026-05-05 10:24 | 45.72430 | 0.22620 | 27916 ft | 450 kts | 258° |
| 2026-05-05 10:24 | 45.71908 | 0.18209 | 27911 ft | 450 kts | 258° |
| 2026-05-05 10:25 | 45.71386 | 0.13807 | 27843 ft | 450 kts | 258° |
| 2026-05-05 10:25 | 45.70864 | 0.09423 | 27167 ft | 453 kts | 258° |
| 2026-05-05 10:25 | 45.70331 | 0.04968 | 26373 ft | 454 kts | 258° |
| 2026-05-05 10:25 | 45.69804 | 0.00576 | 25578 ft | 454 kts | 258° |
| 2026-05-05 10:26 | 45.69273 | -0.03850 | 24976 ft | 449 kts | 258° |
| 2026-05-05 10:26 | 45.68751 | -0.08174 | 24441 ft | 443 kts | 258° |
| 2026-05-05 10:26 | 45.68225 | -0.12530 | 23882 ft | 438 kts | 258° |
| 2026-05-05 10:26 | 45.67717 | -0.16732 | 23328 ft | 433 kts | 258° |
| 2026-05-05 10:27 | 45.67200 | -0.20981 | 22774 ft | 428 kts | 258° |
| 2026-05-05 10:27 | 45.66692 | -0.25131 | 22230 ft | 423 kts | 258° |
| 2026-05-05 10:27 | 45.66028 | -0.29126 | 21695 ft | 417 kts | 250° |
| 2026-05-05 10:27 | 45.64903 | -0.32916 | 21159 ft | 411 kts | 240° |
| 2026-05-05 10:28 | 45.63409 | -0.36315 | 20641 ft | 405 kts | 233° |
| 2026-05-05 10:28 | 45.61772 | -0.39560 | 20123 ft | 401 kts | 232° |
| 2026-05-05 10:28 | 45.60138 | -0.42741 | 19627 ft | 397 kts | 232° |
| 2026-05-05 10:28 | 45.58516 | -0.45902 | 19100 ft | 394 kts | 232° |
| 2026-05-05 10:29 | 45.56910 | -0.49043 | 18585 ft | 390 kts | 232° |
| 2026-05-05 10:29 | 45.55328 | -0.52146 | 18086 ft | 387 kts | 233° |
| 2026-05-05 10:29 | 45.53770 | -0.55203 | 17568 ft | 384 kts | 233° |
| 2026-05-05 10:29 | 45.52201 | -0.58286 | 17057 ft | 381 kts | 233° |
| 2026-05-05 10:30 | 45.50655 | -0.61321 | 16554 ft | 378 kts | 233° |
| 2026-05-05 10:30 | 45.49132 | -0.64311 | 16047 ft | 375 kts | 233° |
| 2026-05-05 10:30 | 45.47607 | -0.67301 | 15543 ft | 372 kts | 233° |
| 2026-05-05 10:30 | 45.46090 | -0.70274 | 15038 ft | 369 kts | 233° |
| 2026-05-05 10:31 | 45.44595 | -0.73198 | 14538 ft | 365 kts | 233° |
| 2026-05-05 10:31 | 45.43112 | -0.76097 | 14039 ft | 362 kts | 233° |
| 2026-05-05 10:31 | 45.41645 | -0.78960 | 13544 ft | 360 kts | 233° |
| 2026-05-05 10:31 | 45.40189 | -0.81830 | 13044 ft | 357 kts | 236° |
| 2026-05-05 10:32 | 45.39233 | -0.85050 | 12514 ft | 356 kts | 259° |
| 2026-05-05 10:32 | 45.39281 | -0.88509 | 12011 ft | 355 kts | 282° |
| 2026-05-05 10:32 | 45.40263 | -0.91710 | 11511 ft | 355 kts | 304° |
| 2026-05-05 10:32 | 45.41996 | -0.94119 | 11016 ft | 355 kts | 326° |
| 2026-05-05 10:33 | 45.44261 | -0.95462 | 10690 ft | 348 kts | 344° |
| 2026-05-05 10:33 | 45.46563 | -0.96285 | 10539 ft | 335 kts | 345° |
| 2026-05-05 10:33 | 45.48779 | -0.97070 | 10373 ft | 322 kts | 344° |
| 2026-05-05 10:33 | 45.50915 | -0.97839 | 10222 ft | 310 kts | 344° |
| 2026-05-05 10:34 | 45.52961 | -0.98587 | 10078 ft | 298 kts | 344° |
| 2026-05-05 10:34 | 45.54913 | -0.99308 | 9958 ft | 287 kts | 343° |
| 2026-05-05 10:34 | 45.56836 | -1.00022 | 9642 ft | 284 kts | 343° |
| 2026-05-05 10:34 | 45.58749 | -1.00736 | 9284 ft | 283 kts | 343° |
| 2026-05-05 10:35 | 45.60659 | -1.01449 | 8946 ft | 281 kts | 343° |
| 2026-05-05 10:35 | 45.62530 | -1.02149 | 8617 ft | 279 kts | 343° |
| 2026-05-05 10:35 | 45.64404 | -1.02848 | 8280 ft | 277 kts | 343° |
| 2026-05-05 10:35 | 45.66257 | -1.03541 | 7944 ft | 275 kts | 343° |
| 2026-05-05 10:36 | 45.68089 | -1.04227 | 7617 ft | 273 kts | 343° |
| 2026-05-05 10:36 | 45.69929 | -1.04917 | 7293 ft | 271 kts | 343° |
| 2026-05-05 10:36 | 45.71722 | -1.05589 | 6978 ft | 269 kts | 345° |
| 2026-05-05 10:36 | 45.73586 | -1.05880 | 6643 ft | 269 kts | 2° |
| 2026-05-05 10:37 | 45.75411 | -1.05365 | 6323 ft | 269 kts | 15° |
| 2026-05-05 10:37 | 45.77128 | -1.04594 | 6009 ft | 268 kts | 16° |
| 2026-05-05 10:37 | 45.78903 | -1.03759 | 5685 ft | 266 kts | 17° |
| 2026-05-05 10:37 | 45.80653 | -1.02940 | 5370 ft | 265 kts | 16° |
| 2026-05-05 10:38 | 45.82405 | -1.02129 | 5047 ft | 264 kts | 16° |
| 2026-05-05 10:38 | 45.84127 | -1.01339 | 4731 ft | 262 kts | 15° |
| 2026-05-05 10:38 | 45.85868 | -1.00545 | 4411 ft | 261 kts | 15° |
| 2026-05-05 10:38 | 45.87606 | -0.99754 | 4088 ft | 260 kts | 15° |
| 2026-05-05 10:39 | 45.89309 | -0.98981 | 3773 ft | 259 kts | 15° |
| 2026-05-05 10:39 | 45.91031 | -0.98199 | 3460 ft | 258 kts | 15° |
| 2026-05-05 10:39 | 45.92741 | -0.97423 | 3147 ft | 257 kts | 15° |
| 2026-05-05 10:39 | 45.94439 | -0.96651 | 2838 ft | 255 kts | 15° |
| 2026-05-05 10:40 | 45.96117 | -0.95888 | 2557 ft | 257 kts | 15° |
| 2026-05-05 10:40 | 45.97851 | -0.95100 | 2488 ft | 261 kts | 15° |
| 2026-05-05 10:40 | 45.99591 | -0.94309 | 2486 ft | 262 kts | 15° |
| 2026-05-05 10:40 | 46.01320 | -0.93521 | 2483 ft | 262 kts | 15° |
| 2026-05-05 10:41 | 46.03031 | -0.92740 | 2475 ft | 253 kts | 15° |
| 2026-05-05 10:41 | 46.04674 | -0.91987 | 2472 ft | 238 kts | 15° |
| 2026-05-05 10:41 | 46.06205 | -0.91360 | 2467 ft | 221 kts | 3° |
| 2026-05-05 10:41 | 46.07671 | -0.91649 | 2476 ft | 215 kts | 335° |
| 2026-05-05 10:42 | 46.10374 | -0.93283 | 2465 ft | 199 kts | 334° |
| 2026-05-05 10:42 | 46.11642 | -0.94043 | 2473 ft | 196 kts | 334° |
| 2026-05-05 10:42 | 46.12900 | -0.94787 | 2478 ft | 196 kts | 334° |
| 2026-05-05 10:43 | 46.14174 | -0.95533 | 2481 ft | 196 kts | 334° |
| 2026-05-05 10:43 | 46.15432 | -0.96266 | 2482 ft | 196 kts | 335° |
| 2026-05-05 10:43 | 46.16625 | -0.97163 | 2464 ft | 192 kts | 312° |
| 2026-05-05 10:43 | 46.17250 | -0.98827 | 2482 ft | 189 kts | 281° |
| 2026-05-05 10:44 | 46.17407 | -1.00697 | 2493 ft | 189 kts | 273° |
| 2026-05-05 10:44 | 46.17454 | -1.02589 | 2382 ft | 187 kts | 271° |
| 2026-05-05 10:44 | 46.17487 | -1.04408 | 2168 ft | 175 kts | 271° |
| 2026-05-05 10:44 | 46.17529 | -1.06102 | 1885 ft | 162 kts | 272° |
| 2026-05-05 10:45 | 46.17574 | -1.07653 | 1656 ft | 149 kts | 272° |
| 2026-05-05 10:45 | 46.17616 | -1.09069 | 1425 ft | 134 kts | 273° |
| 2026-05-05 10:45 | 46.17653 | -1.10359 | 1239 ft | 129 kts | 273° |
| 2026-05-05 10:45 | 46.17690 | -1.11644 | 1075 ft | 128 kts | 274° |